sensor_id;sensor_type;location;lat;lon;timestamp;P1;durP1;ratioP1;P2;durP2;ratioP2
57531;SDS011;43359;51.296;16.904;2022-10-28T00:00:03;136.60;;;125.95;;
57531;SDS011;43359;51.296;16.904;2022-10-28T00:02:29;136.02;;;125.28;;
57531;SDS011;43359;51.296;16.904;2022-10-28T00:04:55;130.93;;;121.15;;
57531;SDS011;43359;51.296;16.904;2022-10-28T00:07:21;128.93;;;119.25;;
57531;SDS011;43359;51.296;16.904;2022-10-28T00:09:47;128.82;;;119.20;;
57531;SDS011;43359;51.296;16.904;2022-10-28T00:12:14;128.90;;;119.18;;
57531;SDS011;43359;51.296;16.904;2022-10-28T00:14:40;130.48;;;120.80;;
57531;SDS011;43359;51.296;16.904;2022-10-28T00:17:06;130.82;;;121.05;;
57531;SDS011;43359;51.296;16.904;2022-10-28T00:19:32;118.80;;;109.75;;
57531;SDS011;43359;51.296;16.904;2022-10-28T00:21:59;122.53;;;113.50;;
57531;SDS011;43359;51.296;16.904;2022-10-28T00:24:25;127.55;;;117.88;;
57531;SDS011;43359;51.296;16.904;2022-10-28T00:26:51;125.65;;;116.43;;
57531;SDS011;43359;51.296;16.904;2022-10-28T00:29:18;117.72;;;108.90;;
57531;SDS011;43359;51.296;16.904;2022-10-28T00:31:44;124.00;;;114.53;;
57531;SDS011;43359;51.296;16.904;2022-10-28T00:34:12;127.68;;;117.97;;
57531;SDS011;43359;51.296;16.904;2022-10-28T00:36:39;122.72;;;113.38;;
57531;SDS011;43359;51.296;16.904;2022-10-28T00:39:16;124.82;;;115.68;;
57531;SDS011;43359;51.296;16.904;2022-10-28T00:41:46;125.07;;;115.40;;
57531;SDS011;43359;51.296;16.904;2022-10-28T00:46:57;121.00;;;111.95;;
57531;SDS011;43359;51.296;16.904;2022-10-28T00:49:25;119.90;;;111.40;;
57531;SDS011;43359;51.296;16.904;2022-10-28T00:51:55;121.03;;;111.90;;
57531;SDS011;43359;51.296;16.904;2022-10-28T00:54:23;126.40;;;117.60;;
57531;SDS011;43359;51.296;16.904;2022-10-28T00:56:50;126.63;;;117.63;;
57531;SDS011;43359;51.296;16.904;2022-10-28T00:59:18;132.30;;;123.35;;
57531;SDS011;43359;51.296;16.904;2022-10-28T01:01:46;129.15;;;120.32;;
57531;SDS011;43359;51.296;16.904;2022-10-28T01:04:13;122.20;;;113.32;;
57531;SDS011;43359;51.296;16.904;2022-10-28T01:06:39;127.03;;;117.93;;
57531;SDS011;43359;51.296;16.904;2022-10-28T01:09:06;129.63;;;120.38;;
57531;SDS011;43359;51.296;16.904;2022-10-28T01:19:17;140.10;;;130.45;;
57531;SDS011;43359;51.296;16.904;2022-10-28T01:37:43;126.90;;;117.85;;
57531;SDS011;43359;51.296;16.904;2022-10-28T01:40:17;134.93;;;125.05;;
57531;SDS011;43359;51.296;16.904;2022-10-28T01:43:09;126.60;;;117.28;;
57531;SDS011;43359;51.296;16.904;2022-10-28T01:45:33;127.95;;;118.68;;
57531;SDS011;43359;51.296;16.904;2022-10-28T01:48:01;125.70;;;116.43;;
57531;SDS011;43359;51.296;16.904;2022-10-28T01:50:39;127.53;;;118.32;;
57531;SDS011;43359;51.296;16.904;2022-10-28T01:53:10;124.07;;;114.07;;
57531;SDS011;43359;51.296;16.904;2022-10-28T01:55:38;126.50;;;116.35;;
57531;SDS011;43359;51.296;16.904;2022-10-28T01:58:05;122.07;;;112.85;;
57531;SDS011;43359;51.296;16.904;2022-10-28T02:00:34;131.45;;;121.78;;
57531;SDS011;43359;51.296;16.904;2022-10-28T02:03:01;112.63;;;103.80;;
57531;SDS011;43359;51.296;16.904;2022-10-28T02:08:03;114.53;;;105.28;;
57531;SDS011;43359;51.296;16.904;2022-10-28T02:10:35;123.38;;;113.07;;
57531;SDS011;43359;51.296;16.904;2022-10-28T02:13:04;125.30;;;115.53;;
57531;SDS011;43359;51.296;16.904;2022-10-28T02:21:01;123.72;;;114.38;;
57531;SDS011;43359;51.296;16.904;2022-10-28T02:23:35;130.50;;;120.93;;
57531;SDS011;43359;51.296;16.904;2022-10-28T02:29:19;120.28;;;111.38;;
57531;SDS011;43359;51.296;16.904;2022-10-28T02:31:49;131.23;;;121.30;;
57531;SDS011;43359;51.296;16.904;2022-10-28T02:34:19;128.43;;;117.78;;
57531;SDS011;43359;51.296;16.904;2022-10-28T02:36:47;124.30;;;114.80;;
57531;SDS011;43359;51.296;16.904;2022-10-28T02:39:15;125.43;;;115.00;;
57531;SDS011;43359;51.296;16.904;2022-10-28T02:44:14;119.90;;;109.80;;
57531;SDS011;43359;51.296;16.904;2022-10-28T02:46:42;123.55;;;113.20;;
57531;SDS011;43359;51.296;16.904;2022-10-28T02:49:10;116.10;;;106.55;;
57531;SDS011;43359;51.296;16.904;2022-10-28T02:51:39;123.18;;;112.63;;
57531;SDS011;43359;51.296;16.904;2022-10-28T02:54:26;129.13;;;118.25;;
57531;SDS011;43359;51.296;16.904;2022-10-28T02:57:01;122.80;;;112.38;;
57531;SDS011;43359;51.296;16.904;2022-10-28T02:59:28;121.68;;;111.20;;
57531;SDS011;43359;51.296;16.904;2022-10-28T03:01:55;125.47;;;115.25;;
57531;SDS011;43359;51.296;16.904;2022-10-28T03:04:21;123.15;;;113.00;;
57531;SDS011;43359;51.296;16.904;2022-10-28T03:06:47;123.47;;;113.20;;
57531;SDS011;43359;51.296;16.904;2022-10-28T03:09:13;116.60;;;106.47;;
57531;SDS011;43359;51.296;16.904;2022-10-28T03:11:39;126.32;;;116.20;;
57531;SDS011;43359;51.296;16.904;2022-10-28T03:14:05;132.73;;;121.32;;
57531;SDS011;43359;51.296;16.904;2022-10-28T03:16:31;133.82;;;122.07;;
57531;SDS011;43359;51.296;16.904;2022-10-28T03:18:57;124.32;;;113.97;;
57531;SDS011;43359;51.296;16.904;2022-10-28T03:21:23;123.75;;;113.07;;
57531;SDS011;43359;51.296;16.904;2022-10-28T03:23:49;131.18;;;119.78;;
57531;SDS011;43359;51.296;16.904;2022-10-28T03:26:16;127.50;;;116.63;;
57531;SDS011;43359;51.296;16.904;2022-10-28T03:28:42;138.52;;;126.70;;
57531;SDS011;43359;51.296;16.904;2022-10-28T03:31:11;124.75;;;114.15;;
57531;SDS011;43359;51.296;16.904;2022-10-28T03:33:39;127.10;;;116.25;;
57531;SDS011;43359;51.296;16.904;2022-10-28T03:36:05;123.93;;;112.60;;
57531;SDS011;43359;51.296;16.904;2022-10-28T03:38:32;115.80;;;105.45;;
57531;SDS011;43359;51.296;16.904;2022-10-28T03:40:58;123.18;;;112.63;;
57531;SDS011;43359;51.296;16.904;2022-10-28T03:43:24;123.45;;;112.75;;
57531;SDS011;43359;51.296;16.904;2022-10-28T03:45:50;115.50;;;105.05;;
57531;SDS011;43359;51.296;16.904;2022-10-28T03:48:16;207.43;;;193.65;;
57531;SDS011;43359;51.296;16.904;2022-10-28T03:50:42;252.85;;;235.75;;
57531;SDS011;43359;51.296;16.904;2022-10-28T03:53:08;269.45;;;251.00;;
57531;SDS011;43359;51.296;16.904;2022-10-28T03:55:34;266.50;;;248.68;;
57531;SDS011;43359;51.296;16.904;2022-10-28T03:58:00;259.50;;;242.02;;
57531;SDS011;43359;51.296;16.904;2022-10-28T04:00:27;267.17;;;249.43;;
57531;SDS011;43359;51.296;16.904;2022-10-28T04:02:53;258.08;;;241.18;;
57531;SDS011;43359;51.296;16.904;2022-10-28T04:05:19;243.60;;;227.48;;
57531;SDS011;43359;51.296;16.904;2022-10-28T04:07:45;234.05;;;219.63;;
57531;SDS011;43359;51.296;16.904;2022-10-28T04:10:12;250.48;;;233.65;;
57531;SDS011;43359;51.296;16.904;2022-10-28T04:12:38;241.18;;;226.05;;
57531;SDS011;43359;51.296;16.904;2022-10-28T04:15:04;230.18;;;215.95;;
57531;SDS011;43359;51.296;16.904;2022-10-28T04:17:32;231.15;;;216.25;;
57531;SDS011;43359;51.296;16.904;2022-10-28T04:19:58;228.00;;;213.02;;
57531;SDS011;43359;51.296;16.904;2022-10-28T04:22:24;241.50;;;225.65;;
57531;SDS011;43359;51.296;16.904;2022-10-28T04:24:51;261.92;;;244.02;;
57531;SDS011;43359;51.296;16.904;2022-10-28T04:27:18;265.30;;;247.27;;
57531;SDS011;43359;51.296;16.904;2022-10-28T04:29:45;257.02;;;239.05;;
57531;SDS011;43359;51.296;16.904;2022-10-28T04:32:11;251.80;;;235.60;;
57531;SDS011;43359;51.296;16.904;2022-10-28T04:34:37;250.30;;;233.98;;
57531;SDS011;43359;51.296;16.904;2022-10-28T04:37:03;269.55;;;250.40;;
57531;SDS011;43359;51.296;16.904;2022-10-28T04:39:29;246.13;;;229.63;;
57531;SDS011;43359;51.296;16.904;2022-10-28T04:41:55;250.70;;;234.98;;
57531;SDS011;43359;51.296;16.904;2022-10-28T04:44:22;179.98;;;167.45;;
57531;SDS011;43359;51.296;16.904;2022-10-28T04:46:48;175.25;;;163.50;;
57531;SDS011;43359;51.296;16.904;2022-10-28T04:49:14;192.52;;;180.55;;
57531;SDS011;43359;51.296;16.904;2022-10-28T04:51:40;195.30;;;182.13;;
57531;SDS011;43359;51.296;16.904;2022-10-28T04:54:06;198.73;;;186.20;;
57531;SDS011;43359;51.296;16.904;2022-10-28T04:56:32;215.30;;;201.07;;
57531;SDS011;43359;51.296;16.904;2022-10-28T04:58:58;253.32;;;237.32;;
57531;SDS011;43359;51.296;16.904;2022-10-28T05:01:24;249.48;;;233.60;;
57531;SDS011;43359;51.296;16.904;2022-10-28T05:03:51;236.88;;;222.05;;
57531;SDS011;43359;51.296;16.904;2022-10-28T05:06:17;234.18;;;219.55;;
57531;SDS011;43359;51.296;16.904;2022-10-28T05:08:43;244.18;;;228.65;;
57531;SDS011;43359;51.296;16.904;2022-10-28T05:11:09;256.00;;;238.90;;
57531;SDS011;43359;51.296;16.904;2022-10-28T05:13:35;255.05;;;237.82;;
57531;SDS011;43359;51.296;16.904;2022-10-28T05:16:01;256.27;;;239.00;;
57531;SDS011;43359;51.296;16.904;2022-10-28T05:18:27;260.70;;;243.20;;
57531;SDS011;43359;51.296;16.904;2022-10-28T05:20:53;256.67;;;237.93;;
57531;SDS011;43359;51.296;16.904;2022-10-28T05:23:21;263.08;;;244.68;;
57531;SDS011;43359;51.296;16.904;2022-10-28T05:25:47;258.40;;;241.57;;
57531;SDS011;43359;51.296;16.904;2022-10-28T05:28:15;268.00;;;250.50;;
57531;SDS011;43359;51.296;16.904;2022-10-28T05:30:42;256.20;;;239.57;;
57531;SDS011;43359;51.296;16.904;2022-10-28T05:33:09;258.92;;;241.25;;
57531;SDS011;43359;51.296;16.904;2022-10-28T05:35:36;260.60;;;242.95;;
57531;SDS011;43359;51.296;16.904;2022-10-28T05:38:02;272.73;;;254.43;;
57531;SDS011;43359;51.296;16.904;2022-10-28T05:40:28;266.27;;;249.15;;
57531;SDS011;43359;51.296;16.904;2022-10-28T05:42:56;271.95;;;254.35;;
57531;SDS011;43359;51.296;16.904;2022-10-28T05:45:23;272.73;;;254.15;;
57531;SDS011;43359;51.296;16.904;2022-10-28T05:47:49;272.40;;;255.43;;
57531;SDS011;43359;51.296;16.904;2022-10-28T05:50:15;276.20;;;259.30;;
57531;SDS011;43359;51.296;16.904;2022-10-28T05:52:52;265.33;;;249.13;;
57531;SDS011;43359;51.296;16.904;2022-10-28T05:55:19;261.70;;;245.75;;
57531;SDS011;43359;51.296;16.904;2022-10-28T05:57:46;270.33;;;253.73;;
57531;SDS011;43359;51.296;16.904;2022-10-28T06:00:14;267.10;;;250.80;;
57531;SDS011;43359;51.296;16.904;2022-10-28T06:02:40;257.98;;;242.20;;
57531;SDS011;43359;51.296;16.904;2022-10-28T06:05:07;255.70;;;240.23;;
57531;SDS011;43359;51.296;16.904;2022-10-28T06:07:33;258.17;;;242.57;;
57531;SDS011;43359;51.296;16.904;2022-10-28T06:09:59;255.07;;;239.60;;
57531;SDS011;43359;51.296;16.904;2022-10-28T06:12:25;258.27;;;243.35;;
57531;SDS011;43359;51.296;16.904;2022-10-28T06:14:52;245.98;;;230.85;;
57531;SDS011;43359;51.296;16.904;2022-10-28T06:17:18;238.18;;;224.23;;
57531;SDS011;43359;51.296;16.904;2022-10-28T06:19:44;239.18;;;225.40;;
57531;SDS011;43359;51.296;16.904;2022-10-28T06:22:10;212.48;;;200.50;;
57531;SDS011;43359;51.296;16.904;2022-10-28T06:24:36;191.43;;;181.35;;
57531;SDS011;43359;51.296;16.904;2022-10-28T06:27:03;233.85;;;221.52;;
57531;SDS011;43359;51.296;16.904;2022-10-28T06:29:29;235.30;;;222.57;;
57531;SDS011;43359;51.296;16.904;2022-10-28T06:31:56;246.25;;;232.68;;
57531;SDS011;43359;51.296;16.904;2022-10-28T06:34:22;244.48;;;231.40;;
57531;SDS011;43359;51.296;16.904;2022-10-28T06:36:48;238.65;;;226.18;;
57531;SDS011;43359;51.296;16.904;2022-10-28T06:39:14;242.07;;;229.77;;
57531;SDS011;43359;51.296;16.904;2022-10-28T06:41:40;240.57;;;228.32;;
57531;SDS011;43359;51.296;16.904;2022-10-28T06:44:06;240.35;;;227.65;;
57531;SDS011;43359;51.296;16.904;2022-10-28T06:46:32;240.52;;;227.65;;
57531;SDS011;43359;51.296;16.904;2022-10-28T06:48:58;242.98;;;229.93;;
57531;SDS011;43359;51.296;16.904;2022-10-28T06:51:27;247.50;;;234.98;;
57531;SDS011;43359;51.296;16.904;2022-10-28T06:53:54;249.80;;;236.32;;
57531;SDS011;43359;51.296;16.904;2022-10-28T06:56:20;247.65;;;234.40;;
57531;SDS011;43359;51.296;16.904;2022-10-28T06:58:50;247.70;;;233.50;;
57531;SDS011;43359;51.296;16.904;2022-10-28T07:01:16;241.48;;;228.80;;
57531;SDS011;43359;51.296;16.904;2022-10-28T07:03:42;237.13;;;224.95;;
57531;SDS011;43359;51.296;16.904;2022-10-28T07:06:08;230.07;;;218.05;;
57531;SDS011;43359;51.296;16.904;2022-10-28T07:08:35;205.98;;;195.57;;
57531;SDS011;43359;51.296;16.904;2022-10-28T07:11:01;204.20;;;194.30;;
57531;SDS011;43359;51.296;16.904;2022-10-28T07:13:27;228.82;;;216.88;;
57531;SDS011;43359;51.296;16.904;2022-10-28T07:15:55;229.45;;;218.00;;
57531;SDS011;43359;51.296;16.904;2022-10-28T07:18:22;228.93;;;217.93;;
57531;SDS011;43359;51.296;16.904;2022-10-28T07:20:50;222.85;;;211.80;;
57531;SDS011;43359;51.296;16.904;2022-10-28T07:23:16;215.30;;;204.88;;
57531;SDS011;43359;51.296;16.904;2022-10-28T07:25:43;202.73;;;192.77;;
57531;SDS011;43359;51.296;16.904;2022-10-28T07:28:09;209.68;;;199.55;;
57531;SDS011;43359;51.296;16.904;2022-10-28T07:30:36;224.00;;;212.75;;
57531;SDS011;43359;51.296;16.904;2022-10-28T07:33:03;232.93;;;221.50;;
57531;SDS011;43359;51.296;16.904;2022-10-28T07:35:30;243.77;;;231.60;;
57531;SDS011;43359;51.296;16.904;2022-10-28T07:37:56;240.75;;;228.52;;
57531;SDS011;43359;51.296;16.904;2022-10-28T07:40:23;245.38;;;232.88;;
57531;SDS011;43359;51.296;16.904;2022-10-28T07:42:50;248.35;;;235.90;;
57531;SDS011;43359;51.296;16.904;2022-10-28T07:45:17;250.90;;;238.32;;
57531;SDS011;43359;51.296;16.904;2022-10-28T07:47:43;246.63;;;233.48;;
57531;SDS011;43359;51.296;16.904;2022-10-28T07:50:09;251.45;;;238.77;;
57531;SDS011;43359;51.296;16.904;2022-10-28T07:52:36;252.65;;;239.73;;
57531;SDS011;43359;51.296;16.904;2022-10-28T07:55:05;238.30;;;226.68;;
57531;SDS011;43359;51.296;16.904;2022-10-28T07:57:32;231.90;;;220.90;;
57531;SDS011;43359;51.296;16.904;2022-10-28T07:59:59;232.55;;;220.75;;
57531;SDS011;43359;51.296;16.904;2022-10-28T08:02:25;231.63;;;219.63;;
57531;SDS011;43359;51.296;16.904;2022-10-28T08:04:51;231.40;;;219.60;;
57531;SDS011;43359;51.296;16.904;2022-10-28T08:07:18;225.68;;;213.43;;
57531;SDS011;43359;51.296;16.904;2022-10-28T08:09:48;244.70;;;231.73;;
57531;SDS011;43359;51.296;16.904;2022-10-28T08:12:17;244.10;;;231.57;;
57531;SDS011;43359;51.296;16.904;2022-10-28T08:14:43;197.63;;;189.00;;
57531;SDS011;43359;51.296;16.904;2022-10-28T08:17:09;122.47;;;116.88;;
57531;SDS011;43359;51.296;16.904;2022-10-28T08:19:35;102.88;;;97.88;;
57531;SDS011;43359;51.296;16.904;2022-10-28T08:22:01;104.75;;;99.07;;
57531;SDS011;43359;51.296;16.904;2022-10-28T08:24:28;105.22;;;100.03;;
57531;SDS011;43359;51.296;16.904;2022-10-28T08:26:54;91.13;;;86.43;;
57531;SDS011;43359;51.296;16.904;2022-10-28T08:29:20;98.95;;;93.95;;
57531;SDS011;43359;51.296;16.904;2022-10-28T08:31:46;95.20;;;90.28;;
57531;SDS011;43359;51.296;16.904;2022-10-28T08:34:12;103.38;;;98.10;;
57531;SDS011;43359;51.296;16.904;2022-10-28T08:36:39;104.13;;;98.72;;
57531;SDS011;43359;51.296;16.904;2022-10-28T08:39:05;113.93;;;108.13;;
57531;SDS011;43359;51.296;16.904;2022-10-28T08:49:21;85.55;;;80.95;;
57531;SDS011;43359;51.296;16.904;2022-10-28T08:54:26;96.65;;;91.88;;
57531;SDS011;43359;51.296;16.904;2022-10-28T08:56:56;88.35;;;83.75;;
57531;SDS011;43359;51.296;16.904;2022-10-28T08:59:28;87.32;;;82.97;;
57531;SDS011;43359;51.296;16.904;2022-10-28T09:01:59;103.65;;;98.40;;
57531;SDS011;43359;51.296;16.904;2022-10-28T09:04:43;99.78;;;94.95;;
57531;SDS011;43359;51.296;16.904;2022-10-28T09:07:13;88.60;;;84.45;;
57531;SDS011;43359;51.296;16.904;2022-10-28T09:09:40;84.22;;;79.93;;
57531;SDS011;43359;51.296;16.904;2022-10-28T09:19:34;83.57;;;79.45;;
57531;SDS011;43359;51.296;16.904;2022-10-28T09:24:46;74.65;;;70.93;;
57531;SDS011;43359;51.296;16.904;2022-10-28T09:32:33;84.45;;;80.45;;
57531;SDS011;43359;51.296;16.904;2022-10-28T09:35:11;74.15;;;70.22;;
57531;SDS011;43359;51.296;16.904;2022-10-28T09:37:48;73.00;;;69.15;;
57531;SDS011;43359;51.296;16.904;2022-10-28T09:40:23;78.53;;;74.47;;
57531;SDS011;43359;51.296;16.904;2022-10-28T09:45:18;65.82;;;62.45;;
57531;SDS011;43359;51.296;16.904;2022-10-28T09:47:48;65.22;;;61.75;;
57531;SDS011;43359;51.296;16.904;2022-10-28T09:50:18;64.20;;;60.90;;
57531;SDS011;43359;51.296;16.904;2022-10-28T09:52:53;75.90;;;72.10;;
57531;SDS011;43359;51.296;16.904;2022-10-28T09:55:22;78.57;;;74.53;;
57531;SDS011;43359;51.296;16.904;2022-10-28T09:57:49;75.97;;;71.85;;
57531;SDS011;43359;51.296;16.904;2022-10-28T10:00:15;66.22;;;62.95;;
57531;SDS011;43359;51.296;16.904;2022-10-28T10:02:41;61.42;;;58.20;;
57531;SDS011;43359;51.296;16.904;2022-10-28T10:05:15;63.70;;;60.22;;
57531;SDS011;43359;51.296;16.904;2022-10-28T10:07:47;71.18;;;67.35;;
57531;SDS011;43359;51.296;16.904;2022-10-28T10:10:18;71.28;;;67.63;;
57531;SDS011;43359;51.296;16.904;2022-10-28T10:12:47;76.18;;;72.38;;
57531;SDS011;43359;51.296;16.904;2022-10-28T10:15:26;75.25;;;71.30;;
57531;SDS011;43359;51.296;16.904;2022-10-28T10:17:52;93.30;;;89.03;;
57531;SDS011;43359;51.296;16.904;2022-10-28T10:20:20;90.72;;;86.63;;
57531;SDS011;43359;51.296;16.904;2022-10-28T10:22:46;87.63;;;83.40;;
57531;SDS011;43359;51.296;16.904;2022-10-28T10:27:52;90.10;;;85.80;;
57531;SDS011;43359;51.296;16.904;2022-10-28T10:30:22;100.10;;;95.60;;
57531;SDS011;43359;51.296;16.904;2022-10-28T10:32:49;95.57;;;91.25;;
57531;SDS011;43359;51.296;16.904;2022-10-28T10:37:43;99.15;;;94.53;;
57531;SDS011;43359;51.296;16.904;2022-10-28T10:42:52;98.80;;;94.43;;
57531;SDS011;43359;51.296;16.904;2022-10-28T10:45:26;95.65;;;91.47;;
57531;SDS011;43359;51.296;16.904;2022-10-28T10:50:40;105.28;;;100.65;;
57531;SDS011;43359;51.296;16.904;2022-10-28T10:53:15;104.53;;;99.93;;
57531;SDS011;43359;51.296;16.904;2022-10-28T10:55:46;96.32;;;92.03;;
57531;SDS011;43359;51.296;16.904;2022-10-28T10:58:20;83.30;;;79.40;;
57531;SDS011;43359;51.296;16.904;2022-10-28T11:00:47;85.00;;;81.00;;
57531;SDS011;43359;51.296;16.904;2022-10-28T11:03:21;86.97;;;82.78;;
57531;SDS011;43359;51.296;16.904;2022-10-28T11:05:55;96.03;;;90.68;;
57531;SDS011;43359;51.296;16.904;2022-10-28T11:08:33;88.60;;;84.28;;
57531;SDS011;43359;51.296;16.904;2022-10-28T11:11:14;94.30;;;90.03;;
57531;SDS011;43359;51.296;16.904;2022-10-28T11:13:44;96.13;;;91.57;;
57531;SDS011;43359;51.296;16.904;2022-10-28T11:16:18;91.55;;;87.50;;
57531;SDS011;43359;51.296;16.904;2022-10-28T11:18:45;93.30;;;88.80;;
57531;SDS011;43359;51.296;16.904;2022-10-28T11:26:31;89.97;;;85.78;;
57531;SDS011;43359;51.296;16.904;2022-10-28T11:29:07;78.25;;;74.60;;
57531;SDS011;43359;51.296;16.904;2022-10-28T11:34:22;84.05;;;80.35;;
57531;SDS011;43359;51.296;16.904;2022-10-28T11:39:24;94.38;;;90.18;;
57531;SDS011;43359;51.296;16.904;2022-10-28T11:44:36;84.40;;;80.50;;
57531;SDS011;43359;51.296;16.904;2022-10-28T11:54:59;111.22;;;106.40;;
57531;SDS011;43359;51.296;16.904;2022-10-28T12:02:55;83.00;;;79.50;;
57531;SDS011;43359;51.296;16.904;2022-10-28T12:08:20;65.82;;;62.92;;
57531;SDS011;43359;51.296;16.904;2022-10-28T12:10:53;65.00;;;62.15;;
57531;SDS011;43359;51.296;16.904;2022-10-28T12:18:42;61.22;;;58.50;;
57531;SDS011;43359;51.296;16.904;2022-10-28T12:21:25;58.75;;;56.13;;
57531;SDS011;43359;51.296;16.904;2022-10-28T12:23:52;49.55;;;47.22;;
57531;SDS011;43359;51.296;16.904;2022-10-28T12:26:20;48.58;;;46.33;;
57531;SDS011;43359;51.296;16.904;2022-10-28T12:28:48;83.20;;;79.63;;
57531;SDS011;43359;51.296;16.904;2022-10-28T12:31:18;74.88;;;71.68;;
57531;SDS011;43359;51.296;16.904;2022-10-28T12:33:46;83.25;;;79.75;;
57531;SDS011;43359;51.296;16.904;2022-10-28T12:41:17;78.32;;;74.82;;
57531;SDS011;43359;51.296;16.904;2022-10-28T12:43:45;74.57;;;71.15;;
57531;SDS011;43359;51.296;16.904;2022-10-28T12:48:59;76.00;;;72.38;;
57531;SDS011;43359;51.296;16.904;2022-10-28T12:51:29;89.15;;;85.15;;
57531;SDS011;43359;51.296;16.904;2022-10-28T12:56:29;65.03;;;62.13;;
57531;SDS011;43359;51.296;16.904;2022-10-28T12:59:05;71.63;;;68.22;;
57531;SDS011;43359;51.296;16.904;2022-10-28T13:01:35;81.20;;;77.80;;
57531;SDS011;43359;51.296;16.904;2022-10-28T13:04:02;72.25;;;69.15;;
57531;SDS011;43359;51.296;16.904;2022-10-28T13:09:26;73.85;;;70.82;;
57531;SDS011;43359;51.296;16.904;2022-10-28T13:14:49;65.17;;;62.30;;
57531;SDS011;43359;51.296;16.904;2022-10-28T13:25:43;78.35;;;74.93;;
57531;SDS011;43359;51.296;16.904;2022-10-28T13:28:14;85.45;;;81.65;;
57531;SDS011;43359;51.296;16.904;2022-10-28T13:30:57;88.15;;;84.25;;
57531;SDS011;43359;51.296;16.904;2022-10-28T13:33:24;91.75;;;87.75;;
57531;SDS011;43359;51.296;16.904;2022-10-28T13:35:52;88.65;;;84.65;;
57531;SDS011;43359;51.296;16.904;2022-10-28T13:38:24;78.22;;;74.53;;
57531;SDS011;43359;51.296;16.904;2022-10-28T13:46:07;77.53;;;74.03;;
57531;SDS011;43359;51.296;16.904;2022-10-28T13:56:22;81.32;;;77.53;;
57531;SDS011;43359;51.296;16.904;2022-10-28T14:04:31;262.50;;;250.43;;
57531;SDS011;43359;51.296;16.904;2022-10-28T14:09:31;275.25;;;261.65;;
57531;SDS011;43359;51.296;16.904;2022-10-28T14:14:31;270.98;;;257.67;;
57531;SDS011;43359;51.296;16.904;2022-10-28T14:16:57;264.92;;;252.68;;
57531;SDS011;43359;51.296;16.904;2022-10-28T14:19:23;269.48;;;256.80;;
57531;SDS011;43359;51.296;16.904;2022-10-28T14:22:04;274.92;;;261.05;;
57531;SDS011;43359;51.296;16.904;2022-10-28T14:24:38;280.85;;;266.45;;
57531;SDS011;43359;51.296;16.904;2022-10-28T14:29:33;285.67;;;271.73;;
57531;SDS011;43359;51.296;16.904;2022-10-28T14:37:56;276.42;;;261.98;;
57531;SDS011;43359;51.296;16.904;2022-10-28T14:40:32;275.92;;;262.88;;
57531;SDS011;43359;51.296;16.904;2022-10-28T14:46:04;271.63;;;259.45;;
57531;SDS011;43359;51.296;16.904;2022-10-28T14:50:47;267.98;;;255.77;;
57531;SDS011;43359;51.296;16.904;2022-10-28T14:53:30;269.27;;;256.27;;
57531;SDS011;43359;51.296;16.904;2022-10-28T14:56:02;267.45;;;255.32;;
57531;SDS011;43359;51.296;16.904;2022-10-28T14:58:41;262.95;;;250.32;;
57531;SDS011;43359;51.296;16.904;2022-10-28T15:01:13;268.50;;;256.30;;
57531;SDS011;43359;51.296;16.904;2022-10-28T15:06:31;269.35;;;256.17;;
57531;SDS011;43359;51.296;16.904;2022-10-28T15:09:02;271.20;;;258.00;;
57531;SDS011;43359;51.296;16.904;2022-10-28T15:11:29;273.40;;;259.95;;
57531;SDS011;43359;51.296;16.904;2022-10-28T15:13:59;272.80;;;259.42;;
57531;SDS011;43359;51.296;16.904;2022-10-28T15:16:25;272.05;;;258.67;;
57531;SDS011;43359;51.296;16.904;2022-10-28T15:18:52;266.73;;;254.95;;
57531;SDS011;43359;51.296;16.904;2022-10-28T15:21:19;261.42;;;249.30;;
57531;SDS011;43359;51.296;16.904;2022-10-28T15:24:01;261.50;;;250.45;;
57531;SDS011;43359;51.296;16.904;2022-10-28T15:26:28;257.15;;;246.45;;
57531;SDS011;43359;51.296;16.904;2022-10-28T15:28:54;265.13;;;253.70;;
57531;SDS011;43359;51.296;16.904;2022-10-28T15:31:21;265.77;;;253.77;;
57531;SDS011;43359;51.296;16.904;2022-10-28T15:33:47;261.45;;;249.70;;
57531;SDS011;43359;51.296;16.904;2022-10-28T15:36:22;264.60;;;252.10;;
57531;SDS011;43359;51.296;16.904;2022-10-28T15:38:50;266.52;;;254.40;;
57531;SDS011;43359;51.296;16.904;2022-10-28T15:43:56;269.42;;;256.95;;
57531;SDS011;43359;51.296;16.904;2022-10-28T15:46:23;257.30;;;244.70;;
57531;SDS011;43359;51.296;16.904;2022-10-28T15:48:53;259.17;;;247.45;;
57531;SDS011;43359;51.296;16.904;2022-10-28T15:51:20;249.05;;;237.43;;
57531;SDS011;43359;51.296;16.904;2022-10-28T15:53:46;223.23;;;214.38;;
57531;SDS011;43359;51.296;16.904;2022-10-28T15:58:43;255.57;;;245.15;;
57531;SDS011;43359;51.296;16.904;2022-10-28T16:01:26;242.93;;;232.50;;
57531;SDS011;43359;51.296;16.904;2022-10-28T16:03:52;241.05;;;231.50;;
57531;SDS011;43359;51.296;16.904;2022-10-28T16:06:20;246.40;;;236.10;;
57531;SDS011;43359;51.296;16.904;2022-10-28T16:08:47;244.00;;;233.70;;
57531;SDS011;43359;51.296;16.904;2022-10-28T16:11:15;233.50;;;224.05;;
57531;SDS011;43359;51.296;16.904;2022-10-28T16:13:46;252.70;;;240.00;;
57531;SDS011;43359;51.296;16.904;2022-10-28T16:16:14;315.88;;;295.23;;
57531;SDS011;43359;51.296;16.904;2022-10-28T16:18:48;297.42;;;278.98;;
57531;SDS011;43359;51.296;16.904;2022-10-28T16:21:18;245.63;;;235.10;;
57531;SDS011;43359;51.296;16.904;2022-10-28T16:23:45;212.00;;;203.32;;
57531;SDS011;43359;51.296;16.904;2022-10-28T16:26:12;219.20;;;210.27;;
57531;SDS011;43359;51.296;16.904;2022-10-28T16:28:38;224.95;;;215.38;;
57531;SDS011;43359;51.296;16.904;2022-10-28T16:31:04;202.00;;;194.07;;
57531;SDS011;43359;51.296;16.904;2022-10-28T16:33:31;224.85;;;216.13;;
57531;SDS011;43359;51.296;16.904;2022-10-28T16:35:58;227.75;;;218.40;;
57531;SDS011;43359;51.296;16.904;2022-10-28T16:38:25;243.18;;;232.98;;
57531;SDS011;43359;51.296;16.904;2022-10-28T16:40:51;242.25;;;232.65;;
57531;SDS011;43359;51.296;16.904;2022-10-28T16:43:19;221.15;;;212.60;;
57531;SDS011;43359;51.296;16.904;2022-10-28T16:45:46;222.50;;;213.80;;
57531;SDS011;43359;51.296;16.904;2022-10-28T16:48:12;223.73;;;214.38;;
57531;SDS011;43359;51.296;16.904;2022-10-28T16:50:40;219.65;;;210.73;;
57531;SDS011;43359;51.296;16.904;2022-10-28T16:53:07;212.15;;;203.73;;
57531;SDS011;43359;51.296;16.904;2022-10-28T16:55:34;229.98;;;220.90;;
57531;SDS011;43359;51.296;16.904;2022-10-28T16:58:00;240.95;;;231.52;;
57531;SDS011;43359;51.296;16.904;2022-10-28T17:00:26;214.90;;;206.40;;